KPZQ METAR Reports


Station name not available
Aug 21, 2019 - 06:36 PM EDT / 2019.08.21 2236 UTC
Wind: from the WNW (300 degrees) at 8 MPH (7 KT) gusting to 18 MPH (16 KT):0
Visibility: 10 mile(s):0
Sky conditions: clear
Temperature: 72.5 F (22.5 C)
Dew Point: 51.1 F (10.6 C)
Relative Humidity: 46%
Pressure (altimeter): 29.89 in. Hg (1012 hPa)
ob: KPZQ 212236Z AUTO 30007G16KT 10SM CLR 23/11 A2989 RMK AO2 T02250106
cycle: 22

 

Rogers City METAR Meteogram

Weather Chart

Nearby METAR Reports

KPZQ - Rogers City, Michigan, USA
Distance from station: SSW 1mi, 2km
Updated: Wed, 21-Aug-2019 6:18pm EDT
Partly cloudy
Partly cloudy
 Wind from WNW
Wind: WNW 12 mph , 19 km/h, Gust: 17 mph , 28 km/h
Temperature: 73°F , 23°C
Dew Point: 52°F , 11°C
Humidity: 47%
Barometer: 29.89 inHg , 1012.2 hPa
Clouds: Partly cloudy
Visibility: 10 miles , 16 km
Cloud details: Partly cloudy 7000 ft
2019/08/21 22:18 KPZQ 212218Z AUTO 30010G15KT 10SM SCT070 23/11 A2989 RMK AO2 T02310109
KAPN - Alpena, Michigan, USA
Distance from station: SSE 27mi, 43km
Updated: Wed, 21-Aug-2019 5:54pm EDT
NOT Current
Clear
Clear
 Wind from NW
Wind: NW 12 mph , 19 km/h
Temperature: 79°F , 26°C
Dew Point: 52°F , 11°C
Humidity: 39%
Barometer: 29.87 inHg , 1011.5 hPa
Clouds: Clear
Visibility: 10 miles , 16 km
2019/08/21 21:54 KAPN 212154Z AUTO 31010KT 10SM CLR 26/11 A2987 RMK AO2 SLP114 T02560106
 
KSLH - Cheboygan, Michigan, USA
Distance from station: WNW 38mi, 61km
Updated: Wed, 21-Aug-2019 6:19pm EDT
Clear
Clear
 Wind from WNW
Wind: WNW 17 mph , 28 km/h, Gust: 23 mph , 37 km/h
Temperature: 73°F , 23°C
Dew Point: 52°F , 11°C
Humidity: 47%
Barometer: 29.88 inHg , 1011.9 hPa
Clouds: Clear
Visibility: 10 miles , 16 km
2019/08/21 22:19 KSLH 212219Z AUTO 30015G20KT 10SM CLR 23/11 A2988 RMK AO2 T02290107
KDRM - Drummond Is, Michigan, USA
Distance from station: N 40mi, 65km
Updated: Wed, 21-Aug-2019 6:20pm EDT
Clear
Clear
 Wind from NW
Wind: NW 7 mph , 11 km/h, Gust: 17 mph , 28 km/h
Temperature: 72°F , 22°C
Dew Point: 48°F , 9°C
Humidity: 44%
Barometer: 29.88 inHg , 1011.9 hPa
Clouds: Clear
Visibility: 10 miles , 16 km
2019/08/21 22:20 KDRM 212220Z AUTO 31006G15KT 260V350 10SM CLR 22/09 A2988 RMK AO2 T02220086
 
KPLN - Pellston, Michigan, USA
Distance from station: WNW 49mi, 79km
Updated: Wed, 21-Aug-2019 5:54pm EDT
NOT Current
Clear
Clear
 Wind from WNW
Wind: WNW 15 mph , 24 km/h, Gust: 23 mph , 37 km/h
Temperature: 75°F , 24°C
Dew Point: 48°F , 9°C
Humidity: 39%
Barometer: 29.91 inHg , 1012.9 hPa
Clouds: Clear
Visibility: 10 miles , 16 km
2019/08/21 21:54 KPLN 212154Z AUTO 29013G20KT 10SM CLR 24/09 A2991 RMK AO2 SLP130 T02390094
KMCD - Mackinac Island, Michigan, USA
Distance from station: NW 50mi, 80km
Updated: Wed, 21-Aug-2019 6:20pm EDT
Overcast
Overcast
 Wind from NNW
Wind: NNW 14 mph , 22 km/h, Gust: 22 mph , 35 km/h
Temperature: 70°F , 21°C
Dew Point: 52°F , 11°C
Humidity: 53%
Barometer: 29.90 inHg , 1012.5 hPa
Clouds: Overcast
Visibility: 10 miles , 16 km
Cloud details: Partly cloudy 6500 ft
Mostly cloudy 9000 ft
Overcast 11000 ft
2019/08/21 22:20 KMCD 212220Z AUTO 33012G19KT 10SM SCT065 BKN090 OVC110 21/11 A2990 RMK AO2 T02120107